sensor_id;sensor_type;location;lat;lon;timestamp;P1;durP1;ratioP1;P2;durP2;ratioP2
36213;SDS011;37652;50.400;30.628;2022-08-18T00:00:04;15.75;;;9.50;;
36213;SDS011;37652;50.400;30.628;2022-08-18T00:02:12;12.07;;;9.10;;
36213;SDS011;37652;50.400;30.628;2022-08-18T00:04:19;13.30;;;8.43;;
36213;SDS011;37652;50.400;30.628;2022-08-18T00:08:20;11.73;;;8.33;;
36213;SDS011;37652;50.400;30.628;2022-08-18T00:10:21;11.23;;;8.60;;
36213;SDS011;37652;50.400;30.628;2022-08-18T00:14:24;11.70;;;8.20;;
36213;SDS011;37652;50.400;30.628;2022-08-18T00:18:25;12.87;;;9.37;;
36213;SDS011;37652;50.400;30.628;2022-08-18T00:22:27;9.80;;;8.50;;
36213;SDS011;37652;50.400;30.628;2022-08-18T00:26:30;10.85;;;9.02;;
36213;SDS011;37652;50.400;30.628;2022-08-18T00:30:32;13.95;;;8.88;;
36213;SDS011;37652;50.400;30.628;2022-08-18T00:32:34;9.27;;;8.48;;
36213;SDS011;37652;50.400;30.628;2022-08-18T00:34:37;12.63;;;9.27;;
36213;SDS011;37652;50.400;30.628;2022-08-18T00:38:38;15.35;;;9.43;;
36213;SDS011;37652;50.400;30.628;2022-08-18T00:42:50;15.13;;;8.73;;
36213;SDS011;37652;50.400;30.628;2022-08-18T00:44:52;11.40;;;8.70;;
36213;SDS011;37652;50.400;30.628;2022-08-18T00:46:53;11.45;;;8.90;;
36213;SDS011;37652;50.400;30.628;2022-08-18T00:50:58;10.40;;;8.77;;
36213;SDS011;37652;50.400;30.628;2022-08-18T00:55:23;9.80;;;8.00;;
36213;SDS011;37652;50.400;30.628;2022-08-18T00:57:25;11.90;;;7.85;;
36213;SDS011;37652;50.400;30.628;2022-08-18T00:59:32;11.23;;;8.00;;
36213;SDS011;37652;50.400;30.628;2022-08-18T01:01:49;11.18;;;8.43;;
36213;SDS011;37652;50.400;30.628;2022-08-18T01:03:53;10.90;;;8.00;;
36213;SDS011;37652;50.400;30.628;2022-08-18T01:06:01;11.65;;;7.60;;
36213;SDS011;37652;50.400;30.628;2022-08-18T01:08:04;14.38;;;8.70;;
36213;SDS011;37652;50.400;30.628;2022-08-18T01:10:10;19.65;;;8.15;;
36213;SDS011;37652;50.400;30.628;2022-08-18T01:12:16;11.57;;;8.10;;
36213;SDS011;37652;50.400;30.628;2022-08-18T01:14:17;13.95;;;7.53;;
36213;SDS011;37652;50.400;30.628;2022-08-18T01:16:19;14.48;;;8.98;;
36213;SDS011;37652;50.400;30.628;2022-08-18T01:18:38;12.70;;;7.75;;
36213;SDS011;37652;50.400;30.628;2022-08-18T01:21:14;11.55;;;7.47;;
36213;SDS011;37652;50.400;30.628;2022-08-18T01:23:42;9.18;;;7.80;;
36213;SDS011;37652;50.400;30.628;2022-08-18T01:25:44;13.43;;;8.00;;
36213;SDS011;37652;50.400;30.628;2022-08-18T01:27:58;10.25;;;7.70;;
36213;SDS011;37652;50.400;30.628;2022-08-18T01:30:06;10.75;;;7.80;;
36213;SDS011;37652;50.400;30.628;2022-08-18T01:32:09;12.23;;;8.23;;
36213;SDS011;37652;50.400;30.628;2022-08-18T01:34:11;17.73;;;8.90;;
36213;SDS011;37652;50.400;30.628;2022-08-18T01:38:15;11.45;;;7.70;;
36213;SDS011;37652;50.400;30.628;2022-08-18T01:40:20;12.02;;;8.00;;
36213;SDS011;37652;50.400;30.628;2022-08-18T01:42:22;12.50;;;8.40;;
36213;SDS011;37652;50.400;30.628;2022-08-18T01:46:24;16.60;;;8.48;;
36213;SDS011;37652;50.400;30.628;2022-08-18T01:48:26;13.27;;;8.00;;
36213;SDS011;37652;50.400;30.628;2022-08-18T01:50:28;13.00;;;8.15;;
36213;SDS011;37652;50.400;30.628;2022-08-18T01:54:30;13.52;;;8.32;;
36213;SDS011;37652;50.400;30.628;2022-08-18T01:56:30;9.95;;;7.70;;
36213;SDS011;37652;50.400;30.628;2022-08-18T01:58:32;9.07;;;6.97;;
36213;SDS011;37652;50.400;30.628;2022-08-18T02:00:34;8.18;;;7.32;;
36213;SDS011;37652;50.400;30.628;2022-08-18T02:02:35;9.77;;;8.00;;
36213;SDS011;37652;50.400;30.628;2022-08-18T02:06:38;8.93;;;7.07;;
36213;SDS011;37652;50.400;30.628;2022-08-18T02:08:39;7.63;;;6.72;;
36213;SDS011;37652;50.400;30.628;2022-08-18T02:10:40;8.82;;;7.60;;
36213;SDS011;37652;50.400;30.628;2022-08-18T02:12:41;8.23;;;7.25;;
36213;SDS011;37652;50.400;30.628;2022-08-18T02:14:43;12.90;;;7.45;;
36213;SDS011;37652;50.400;30.628;2022-08-18T02:16:44;11.52;;;7.85;;
36213;SDS011;37652;50.400;30.628;2022-08-18T02:18:44;11.68;;;7.60;;
36213;SDS011;37652;50.400;30.628;2022-08-18T02:20:45;11.68;;;7.93;;
36213;SDS011;37652;50.400;30.628;2022-08-18T02:22:47;14.15;;;7.82;;
36213;SDS011;37652;50.400;30.628;2022-08-18T02:24:48;11.73;;;7.68;;
36213;SDS011;37652;50.400;30.628;2022-08-18T02:26:49;8.60;;;7.57;;
36213;SDS011;37652;50.400;30.628;2022-08-18T02:28:49;14.05;;;7.65;;
36213;SDS011;37652;50.400;30.628;2022-08-18T02:32:51;8.87;;;6.83;;
36213;SDS011;37652;50.400;30.628;2022-08-18T02:36:55;8.23;;;7.20;;
36213;SDS011;37652;50.400;30.628;2022-08-18T02:38:56;11.02;;;7.78;;
36213;SDS011;37652;50.400;30.628;2022-08-18T02:40:57;11.75;;;8.02;;
36213;SDS011;37652;50.400;30.628;2022-08-18T02:43:06;12.38;;;7.80;;
36213;SDS011;37652;50.400;30.628;2022-08-18T02:45:08;9.07;;;8.18;;
36213;SDS011;37652;50.400;30.628;2022-08-18T02:47:09;12.15;;;7.88;;
36213;SDS011;37652;50.400;30.628;2022-08-18T02:51:13;7.93;;;6.93;;
36213;SDS011;37652;50.400;30.628;2022-08-18T02:53:15;14.48;;;7.88;;
36213;SDS011;37652;50.400;30.628;2022-08-18T02:55:21;9.25;;;7.43;;
36213;SDS011;37652;50.400;30.628;2022-08-18T02:57:25;13.43;;;7.53;;
36213;SDS011;37652;50.400;30.628;2022-08-18T02:59:26;10.70;;;7.93;;
36213;SDS011;37652;50.400;30.628;2022-08-18T03:01:28;11.13;;;7.80;;
36213;SDS011;37652;50.400;30.628;2022-08-18T03:03:31;16.80;;;8.15;;
36213;SDS011;37652;50.400;30.628;2022-08-18T03:05:31;21.30;;;7.97;;
36213;SDS011;37652;50.400;30.628;2022-08-18T03:07:32;8.23;;;7.43;;
36213;SDS011;37652;50.400;30.628;2022-08-18T03:09:33;11.13;;;6.93;;
36213;SDS011;37652;50.400;30.628;2022-08-18T03:11:35;9.00;;;7.70;;
36213;SDS011;37652;50.400;30.628;2022-08-18T03:13:37;8.55;;;7.28;;
36213;SDS011;37652;50.400;30.628;2022-08-18T03:17:38;12.40;;;7.87;;
36213;SDS011;37652;50.400;30.628;2022-08-18T03:19:40;9.63;;;7.82;;
36213;SDS011;37652;50.400;30.628;2022-08-18T03:21:44;14.52;;;7.18;;
36213;SDS011;37652;50.400;30.628;2022-08-18T03:23:46;13.38;;;8.23;;
36213;SDS011;37652;50.400;30.628;2022-08-18T03:25:48;15.00;;;8.20;;
36213;SDS011;37652;50.400;30.628;2022-08-18T03:29:49;9.20;;;6.87;;
36213;SDS011;37652;50.400;30.628;2022-08-18T03:31:50;12.38;;;8.07;;
36213;SDS011;37652;50.400;30.628;2022-08-18T03:35:52;8.15;;;7.22;;
36213;SDS011;37652;50.400;30.628;2022-08-18T03:37:56;9.38;;;7.00;;
36213;SDS011;37652;50.400;30.628;2022-08-18T03:39:58;10.98;;;7.38;;
36213;SDS011;37652;50.400;30.628;2022-08-18T03:41:58;13.57;;;7.63;;
36213;SDS011;37652;50.400;30.628;2022-08-18T03:43:59;14.15;;;7.47;;
36213;SDS011;37652;50.400;30.628;2022-08-18T03:46:02;10.35;;;7.55;;
36213;SDS011;37652;50.400;30.628;2022-08-18T03:48:03;17.83;;;7.70;;
36213;SDS011;37652;50.400;30.628;2022-08-18T03:50:04;8.95;;;7.35;;
36213;SDS011;37652;50.400;30.628;2022-08-18T03:52:08;9.10;;;7.38;;
36213;SDS011;37652;50.400;30.628;2022-08-18T03:54:09;11.00;;;7.68;;
36213;SDS011;37652;50.400;30.628;2022-08-18T03:56:13;10.82;;;8.93;;
36213;SDS011;37652;50.400;30.628;2022-08-18T03:58:16;11.82;;;7.93;;
36213;SDS011;37652;50.400;30.628;2022-08-18T04:00:17;11.50;;;7.20;;
36213;SDS011;37652;50.400;30.628;2022-08-18T04:02:17;11.43;;;7.53;;
36213;SDS011;37652;50.400;30.628;2022-08-18T04:04:19;10.52;;;7.72;;
36213;SDS011;37652;50.400;30.628;2022-08-18T04:06:23;11.30;;;6.88;;
36213;SDS011;37652;50.400;30.628;2022-08-18T04:08:26;13.45;;;7.35;;
36213;SDS011;37652;50.400;30.628;2022-08-18T04:10:27;10.38;;;7.72;;
36213;SDS011;37652;50.400;30.628;2022-08-18T04:12:28;10.00;;;7.10;;
36213;SDS011;37652;50.400;30.628;2022-08-18T04:14:29;9.70;;;7.28;;
36213;SDS011;37652;50.400;30.628;2022-08-18T04:16:31;8.90;;;7.47;;
36213;SDS011;37652;50.400;30.628;2022-08-18T04:18:33;13.95;;;7.57;;
36213;SDS011;37652;50.400;30.628;2022-08-18T04:20:34;10.25;;;8.20;;
36213;SDS011;37652;50.400;30.628;2022-08-18T04:22:35;10.70;;;7.57;;
36213;SDS011;37652;50.400;30.628;2022-08-18T04:26:38;12.73;;;7.77;;
36213;SDS011;37652;50.400;30.628;2022-08-18T04:28:45;16.90;;;7.10;;
36213;SDS011;37652;50.400;30.628;2022-08-18T04:30:46;13.23;;;8.00;;
36213;SDS011;37652;50.400;30.628;2022-08-18T04:32:46;12.20;;;7.70;;
36213;SDS011;37652;50.400;30.628;2022-08-18T04:34:48;9.20;;;7.30;;
36213;SDS011;37652;50.400;30.628;2022-08-18T04:36:49;8.38;;;7.53;;
36213;SDS011;37652;50.400;30.628;2022-08-18T04:38:52;14.70;;;7.97;;
36213;SDS011;37652;50.400;30.628;2022-08-18T04:40:54;7.63;;;6.80;;
36213;SDS011;37652;50.400;30.628;2022-08-18T04:42:55;8.05;;;6.95;;
36213;SDS011;37652;50.400;30.628;2022-08-18T04:44:56;12.27;;;7.10;;
36213;SDS011;37652;50.400;30.628;2022-08-18T04:46:59;11.82;;;6.43;;
36213;SDS011;37652;50.400;30.628;2022-08-18T04:49:00;13.48;;;7.30;;
36213;SDS011;37652;50.400;30.628;2022-08-18T04:53:06;10.52;;;7.47;;
36213;SDS011;37652;50.400;30.628;2022-08-18T04:55:25;15.60;;;7.07;;
36213;SDS011;37652;50.400;30.628;2022-08-18T04:57:28;11.52;;;7.40;;
36213;SDS011;37652;50.400;30.628;2022-08-18T04:59:31;7.60;;;6.90;;
36213;SDS011;37652;50.400;30.628;2022-08-18T05:03:34;13.90;;;6.63;;
36213;SDS011;37652;50.400;30.628;2022-08-18T05:05:37;8.40;;;6.22;;
36213;SDS011;37652;50.400;30.628;2022-08-18T05:09:43;11.23;;;6.57;;
36213;SDS011;37652;50.400;30.628;2022-08-18T05:13:45;7.83;;;6.23;;
36213;SDS011;37652;50.400;30.628;2022-08-18T05:15:51;11.70;;;6.22;;
36213;SDS011;37652;50.400;30.628;2022-08-18T05:17:52;8.60;;;6.43;;
36213;SDS011;37652;50.400;30.628;2022-08-18T05:21:54;13.57;;;6.70;;
36213;SDS011;37652;50.400;30.628;2022-08-18T05:23:56;7.75;;;6.75;;
36213;SDS011;37652;50.400;30.628;2022-08-18T05:25:58;15.50;;;6.63;;
36213;SDS011;37652;50.400;30.628;2022-08-18T05:28:02;13.35;;;6.07;;
36213;SDS011;37652;50.400;30.628;2022-08-18T05:32:05;9.48;;;6.22;;
36213;SDS011;37652;50.400;30.628;2022-08-18T05:34:06;7.03;;;5.75;;
36213;SDS011;37652;50.400;30.628;2022-08-18T05:38:17;9.70;;;5.90;;
36213;SDS011;37652;50.400;30.628;2022-08-18T05:40:21;11.05;;;5.97;;
36213;SDS011;37652;50.400;30.628;2022-08-18T05:42:26;13.20;;;5.97;;
36213;SDS011;37652;50.400;30.628;2022-08-18T05:44:31;8.98;;;6.40;;
36213;SDS011;37652;50.400;30.628;2022-08-18T05:46:42;10.75;;;5.97;;
36213;SDS011;37652;50.400;30.628;2022-08-18T05:48:44;11.60;;;6.10;;
36213;SDS011;37652;50.400;30.628;2022-08-18T05:50:45;10.98;;;5.88;;
36213;SDS011;37652;50.400;30.628;2022-08-18T05:52:57;8.95;;;5.93;;
36213;SDS011;37652;50.400;30.628;2022-08-18T05:55:07;10.27;;;5.60;;
36213;SDS011;37652;50.400;30.628;2022-08-18T05:57:35;8.85;;;5.70;;
36213;SDS011;37652;50.400;30.628;2022-08-18T05:59:51;12.90;;;6.00;;
36213;SDS011;37652;50.400;30.628;2022-08-18T06:01:55;13.35;;;6.57;;
36213;SDS011;37652;50.400;30.628;2022-08-18T06:06:32;12.95;;;5.40;;
36213;SDS011;37652;50.400;30.628;2022-08-18T06:08:36;11.25;;;5.63;;
36213;SDS011;37652;50.400;30.628;2022-08-18T06:10:49;10.75;;;6.43;;
36213;SDS011;37652;50.400;30.628;2022-08-18T06:12:51;10.55;;;6.00;;
36213;SDS011;37652;50.400;30.628;2022-08-18T06:14:57;18.40;;;6.13;;
36213;SDS011;37652;50.400;30.628;2022-08-18T06:26:24;15.00;;;5.95;;
36213;SDS011;37652;50.400;30.628;2022-08-18T06:35:50;11.25;;;6.43;;
36213;SDS011;37652;50.400;30.628;2022-08-18T06:40:13;11.60;;;5.80;;
36213;SDS011;37652;50.400;30.628;2022-08-18T06:44:35;10.20;;;5.90;;
36213;SDS011;37652;50.400;30.628;2022-08-18T06:48:47;13.02;;;6.57;;
36213;SDS011;37652;50.400;30.628;2022-08-18T06:50:55;9.68;;;6.00;;
36213;SDS011;37652;50.400;30.628;2022-08-18T06:53:01;7.70;;;5.85;;
36213;SDS011;37652;50.400;30.628;2022-08-18T06:55:06;12.10;;;5.88;;
36213;SDS011;37652;50.400;30.628;2022-08-18T06:59:54;11.43;;;6.28;;
36213;SDS011;37652;50.400;30.628;2022-08-18T07:04:01;9.32;;;5.40;;
36213;SDS011;37652;50.400;30.628;2022-08-18T07:06:23;10.75;;;6.03;;
36213;SDS011;37652;50.400;30.628;2022-08-18T07:10:36;14.77;;;6.03;;
36213;SDS011;37652;50.400;30.628;2022-08-18T07:12:43;7.07;;;5.20;;
36213;SDS011;37652;50.400;30.628;2022-08-18T07:14:46;11.38;;;6.10;;
36213;SDS011;37652;50.400;30.628;2022-08-18T07:16:49;10.35;;;6.63;;
36213;SDS011;37652;50.400;30.628;2022-08-18T07:19:06;10.10;;;5.75;;
36213;SDS011;37652;50.400;30.628;2022-08-18T07:21:22;15.05;;;5.85;;
36213;SDS011;37652;50.400;30.628;2022-08-18T07:23:26;9.85;;;5.63;;
36213;SDS011;37652;50.400;30.628;2022-08-18T07:25:31;6.90;;;5.40;;
36213;SDS011;37652;50.400;30.628;2022-08-18T07:27:45;10.73;;;5.38;;
36213;SDS011;37652;50.400;30.628;2022-08-18T07:30:05;10.30;;;5.97;;
36213;SDS011;37652;50.400;30.628;2022-08-18T07:32:11;16.80;;;6.03;;
36213;SDS011;37652;50.400;30.628;2022-08-18T07:34:20;10.02;;;5.70;;
36213;SDS011;37652;50.400;30.628;2022-08-18T07:36:56;11.77;;;5.82;;
36213;SDS011;37652;50.400;30.628;2022-08-18T07:41:33;11.45;;;5.78;;
36213;SDS011;37652;50.400;30.628;2022-08-18T07:46:02;14.05;;;5.70;;
36213;SDS011;37652;50.400;30.628;2022-08-18T07:48:16;11.07;;;5.25;;
36213;SDS011;37652;50.400;30.628;2022-08-18T07:50:17;14.95;;;5.40;;
36213;SDS011;37652;50.400;30.628;2022-08-18T07:52:19;8.40;;;5.60;;
36213;SDS011;37652;50.400;30.628;2022-08-18T07:57:22;12.25;;;6.30;;
36213;SDS011;37652;50.400;30.628;2022-08-18T08:04:37;6.75;;;5.38;;
36213;SDS011;37652;50.400;30.628;2022-08-18T08:06:52;11.20;;;5.27;;
36213;SDS011;37652;50.400;30.628;2022-08-18T08:09:02;9.70;;;5.13;;
36213;SDS011;37652;50.400;30.628;2022-08-18T08:13:21;9.38;;;5.57;;
36213;SDS011;37652;50.400;30.628;2022-08-18T08:17:58;7.88;;;4.95;;
36213;SDS011;37652;50.400;30.628;2022-08-18T08:24:19;15.48;;;4.72;;
36213;SDS011;37652;50.400;30.628;2022-08-18T08:29:02;13.38;;;5.30;;
36213;SDS011;37652;50.400;30.628;2022-08-18T08:33:56;12.20;;;4.97;;
36213;SDS011;37652;50.400;30.628;2022-08-18T08:36:06;8.75;;;4.80;;
36213;SDS011;37652;50.400;30.628;2022-08-18T08:38:14;8.00;;;4.30;;
36213;SDS011;37652;50.400;30.628;2022-08-18T08:40:25;9.27;;;4.28;;
36213;SDS011;37652;50.400;30.628;2022-08-18T08:45:12;11.18;;;4.60;;
36213;SDS011;37652;50.400;30.628;2022-08-18T08:47:24;9.77;;;4.05;;
36213;SDS011;37652;50.400;30.628;2022-08-18T08:49:46;8.88;;;4.13;;
36213;SDS011;37652;50.400;30.628;2022-08-18T08:51:53;4.95;;;3.80;;
36213;SDS011;37652;50.400;30.628;2022-08-18T08:54:00;7.82;;;4.55;;
36213;SDS011;37652;50.400;30.628;2022-08-18T08:56:08;7.25;;;4.15;;
36213;SDS011;37652;50.400;30.628;2022-08-18T08:58:19;10.88;;;4.38;;
36213;SDS011;37652;50.400;30.628;2022-08-18T09:00:39;10.40;;;4.18;;
36213;SDS011;37652;50.400;30.628;2022-08-18T09:05:16;7.22;;;3.38;;
36213;SDS011;37652;50.400;30.628;2022-08-18T09:16:48;13.43;;;4.05;;
36213;SDS011;37652;50.400;30.628;2022-08-18T09:21:36;12.27;;;4.47;;
36213;SDS011;37652;50.400;30.628;2022-08-18T09:23:47;11.63;;;3.70;;
36213;SDS011;37652;50.400;30.628;2022-08-18T09:25:57;7.90;;;3.60;;
36213;SDS011;37652;50.400;30.628;2022-08-18T09:28:38;5.05;;;3.42;;
36213;SDS011;37652;50.400;30.628;2022-08-18T09:35:46;8.00;;;3.35;;
36213;SDS011;37652;50.400;30.628;2022-08-18T09:38:10;11.68;;;3.80;;
36213;SDS011;37652;50.400;30.628;2022-08-18T09:40:34;11.13;;;3.60;;
36213;SDS011;37652;50.400;30.628;2022-08-18T09:43:13;10.00;;;3.85;;
36213;SDS011;37652;50.400;30.628;2022-08-18T09:49:38;6.32;;;3.58;;
36213;SDS011;37652;50.400;30.628;2022-08-18T09:51:42;9.68;;;3.22;;
36213;SDS011;37652;50.400;30.628;2022-08-18T09:55:54;8.35;;;3.30;;
36213;SDS011;37652;50.400;30.628;2022-08-18T09:58:17;8.45;;;3.75;;
36213;SDS011;37652;50.400;30.628;2022-08-18T10:00:26;8.87;;;3.50;;
36213;SDS011;37652;50.400;30.628;2022-08-18T10:04:32;9.10;;;3.38;;
36213;SDS011;37652;50.400;30.628;2022-08-18T10:06:48;9.85;;;3.42;;
36213;SDS011;37652;50.400;30.628;2022-08-18T10:08:52;14.80;;;3.30;;
36213;SDS011;37652;50.400;30.628;2022-08-18T10:11:38;5.50;;;3.30;;
36213;SDS011;37652;50.400;30.628;2022-08-18T10:14:48;11.27;;;3.53;;
36213;SDS011;37652;50.400;30.628;2022-08-18T10:21:21;11.48;;;3.38;;
36213;SDS011;37652;50.400;30.628;2022-08-18T10:23:45;12.60;;;3.28;;
36213;SDS011;37652;50.400;30.628;2022-08-18T10:25:52;9.23;;;3.47;;
36213;SDS011;37652;50.400;30.628;2022-08-18T10:27:54;13.13;;;3.33;;
36213;SDS011;37652;50.400;30.628;2022-08-18T10:29:56;8.70;;;3.55;;
36213;SDS011;37652;50.400;30.628;2022-08-18T10:34:00;7.72;;;3.20;;
36213;SDS011;37652;50.400;30.628;2022-08-18T10:36:10;7.32;;;4.65;;
36213;SDS011;37652;50.400;30.628;2022-08-18T10:38:49;10.05;;;3.47;;
36213;SDS011;37652;50.400;30.628;2022-08-18T10:41:04;8.57;;;2.95;;
36213;SDS011;37652;50.400;30.628;2022-08-18T10:44:12;13.43;;;3.67;;
36213;SDS011;37652;50.400;30.628;2022-08-18T10:45:43;10.95;;;4.32;;
36213;SDS011;37652;50.400;30.628;2022-08-18T10:50:17;5.38;;;3.72;;
36213;SDS011;37652;50.400;30.628;2022-08-18T10:56:41;8.63;;;3.20;;
36213;SDS011;37652;50.400;30.628;2022-08-18T11:05:12;8.35;;;3.90;;
36213;SDS011;37652;50.400;30.628;2022-08-18T11:07:20;4.13;;;3.38;;
36213;SDS011;37652;50.400;30.628;2022-08-18T11:09:26;10.55;;;3.53;;
36213;SDS011;37652;50.400;30.628;2022-08-18T11:11:37;5.78;;;3.20;;
36213;SDS011;37652;50.400;30.628;2022-08-18T11:18:06;7.88;;;3.08;;
36213;SDS011;37652;50.400;30.628;2022-08-18T11:20:28;9.55;;;2.80;;
36213;SDS011;37652;50.400;30.628;2022-08-18T11:22:31;9.32;;;3.42;;
36213;SDS011;37652;50.400;30.628;2022-08-18T11:24:34;10.20;;;3.50;;
36213;SDS011;37652;50.400;30.628;2022-08-18T11:26:45;11.13;;;3.58;;
36213;SDS011;37652;50.400;30.628;2022-08-18T11:28:51;11.23;;;3.70;;
36213;SDS011;37652;50.400;30.628;2022-08-18T11:30:53;10.77;;;3.58;;
36213;SDS011;37652;50.400;30.628;2022-08-18T11:32:55;9.63;;;3.40;;
36213;SDS011;37652;50.400;30.628;2022-08-18T11:37:01;10.45;;;3.75;;
36213;SDS011;37652;50.400;30.628;2022-08-18T11:39:08;17.77;;;3.88;;
36213;SDS011;37652;50.400;30.628;2022-08-18T11:41:10;9.00;;;3.30;;
36213;SDS011;37652;50.400;30.628;2022-08-18T11:45:19;13.00;;;3.38;;
36213;SDS011;37652;50.400;30.628;2022-08-18T11:47:22;7.00;;;3.40;;
36213;SDS011;37652;50.400;30.628;2022-08-18T11:49:30;10.45;;;3.55;;
36213;SDS011;37652;50.400;30.628;2022-08-18T11:51:32;15.30;;;3.88;;
36213;SDS011;37652;50.400;30.628;2022-08-18T11:56:03;8.30;;;3.63;;
36213;SDS011;37652;50.400;30.628;2022-08-18T11:58:36;8.60;;;3.25;;
36213;SDS011;37652;50.400;30.628;2022-08-18T12:02:45;7.22;;;3.80;;
36213;SDS011;37652;50.400;30.628;2022-08-18T12:05:05;7.93;;;3.45;;
36213;SDS011;37652;50.400;30.628;2022-08-18T12:07:10;9.77;;;3.53;;
36213;SDS011;37652;50.400;30.628;2022-08-18T12:09:14;8.80;;;4.10;;
36213;SDS011;37652;50.400;30.628;2022-08-18T12:11:19;8.88;;;3.55;;
36213;SDS011;37652;50.400;30.628;2022-08-18T12:13:25;11.35;;;4.90;;
36213;SDS011;37652;50.400;30.628;2022-08-18T12:15:28;7.88;;;3.80;;
36213;SDS011;37652;50.400;30.628;2022-08-18T12:17:31;6.57;;;3.35;;
36213;SDS011;37652;50.400;30.628;2022-08-18T12:19:32;7.68;;;3.70;;
36213;SDS011;37652;50.400;30.628;2022-08-18T12:26:04;7.82;;;4.03;;
36213;SDS011;37652;50.400;30.628;2022-08-18T12:28:06;9.55;;;3.58;;
36213;SDS011;37652;50.400;30.628;2022-08-18T12:30:08;9.32;;;4.13;;
36213;SDS011;37652;50.400;30.628;2022-08-18T12:32:11;8.40;;;3.40;;
36213;SDS011;37652;50.400;30.628;2022-08-18T12:34:12;7.15;;;3.25;;
36213;SDS011;37652;50.400;30.628;2022-08-18T12:36:13;9.20;;;3.20;;
36213;SDS011;37652;50.400;30.628;2022-08-18T12:38:14;6.95;;;3.47;;
36213;SDS011;37652;50.400;30.628;2022-08-18T12:40:16;6.55;;;3.40;;
36213;SDS011;37652;50.400;30.628;2022-08-18T12:42:17;7.68;;;4.00;;
36213;SDS011;37652;50.400;30.628;2022-08-18T12:44:19;4.32;;;3.20;;
36213;SDS011;37652;50.400;30.628;2022-08-18T12:46:20;4.55;;;3.25;;
36213;SDS011;37652;50.400;30.628;2022-08-18T12:48:21;7.53;;;3.55;;
36213;SDS011;37652;50.400;30.628;2022-08-18T12:50:22;10.57;;;3.72;;
36213;SDS011;37652;50.400;30.628;2022-08-18T12:52:24;8.80;;;4.00;;
36213;SDS011;37652;50.400;30.628;2022-08-18T12:54:25;9.23;;;3.30;;
36213;SDS011;37652;50.400;30.628;2022-08-18T12:56:27;11.05;;;3.70;;
36213;SDS011;37652;50.400;30.628;2022-08-18T12:58:29;8.90;;;3.38;;
36213;SDS011;37652;50.400;30.628;2022-08-18T13:00:30;5.72;;;3.03;;
36213;SDS011;37652;50.400;30.628;2022-08-18T13:02:31;9.60;;;3.55;;
36213;SDS011;37652;50.400;30.628;2022-08-18T13:04:33;7.38;;;3.30;;
36213;SDS011;37652;50.400;30.628;2022-08-18T13:06:36;6.57;;;3.40;;
36213;SDS011;37652;50.400;30.628;2022-08-18T13:08:40;7.30;;;3.05;;
36213;SDS011;37652;50.400;30.628;2022-08-18T13:10:41;8.95;;;3.45;;
36213;SDS011;37652;50.400;30.628;2022-08-18T13:12:42;4.32;;;2.90;;
36213;SDS011;37652;50.400;30.628;2022-08-18T13:14:43;6.65;;;2.88;;
36213;SDS011;37652;50.400;30.628;2022-08-18T13:16:44;6.38;;;3.50;;
36213;SDS011;37652;50.400;30.628;2022-08-18T13:18:45;14.95;;;3.28;;
36213;SDS011;37652;50.400;30.628;2022-08-18T13:20:46;15.68;;;3.70;;
36213;SDS011;37652;50.400;30.628;2022-08-18T13:22:48;5.00;;;3.35;;
36213;SDS011;37652;50.400;30.628;2022-08-18T13:24:49;10.82;;;3.22;;
36213;SDS011;37652;50.400;30.628;2022-08-18T13:26:50;4.60;;;3.08;;
36213;SDS011;37652;50.400;30.628;2022-08-18T13:28:51;5.47;;;3.30;;
36213;SDS011;37652;50.400;30.628;2022-08-18T13:30:52;10.90;;;3.63;;
36213;SDS011;37652;50.400;30.628;2022-08-18T13:32:53;8.25;;;3.40;;
36213;SDS011;37652;50.400;30.628;2022-08-18T13:34:54;6.88;;;3.67;;
36213;SDS011;37652;50.400;30.628;2022-08-18T13:36:55;3.80;;;2.47;;
36213;SDS011;37652;50.400;30.628;2022-08-18T13:38:56;7.03;;;3.42;;
36213;SDS011;37652;50.400;30.628;2022-08-18T13:40:58;10.20;;;4.28;;
36213;SDS011;37652;50.400;30.628;2022-08-18T13:43:03;8.52;;;3.00;;
36213;SDS011;37652;50.400;30.628;2022-08-18T13:45:04;7.85;;;3.30;;
36213;SDS011;37652;50.400;30.628;2022-08-18T13:47:05;5.72;;;2.90;;
36213;SDS011;37652;50.400;30.628;2022-08-18T13:49:06;7.40;;;3.05;;
36213;SDS011;37652;50.400;30.628;2022-08-18T13:51:07;7.75;;;3.22;;
36213;SDS011;37652;50.400;30.628;2022-08-18T13:53:14;12.55;;;3.15;;
36213;SDS011;37652;50.400;30.628;2022-08-18T13:55:18;5.63;;;2.95;;
36213;SDS011;37652;50.400;30.628;2022-08-18T13:57:20;8.90;;;2.55;;
36213;SDS011;37652;50.400;30.628;2022-08-18T13:59:21;7.50;;;3.35;;
36213;SDS011;37652;50.400;30.628;2022-08-18T14:01:22;8.73;;;3.00;;
36213;SDS011;37652;50.400;30.628;2022-08-18T14:03:23;10.50;;;2.58;;
36213;SDS011;37652;50.400;30.628;2022-08-18T14:05:25;8.27;;;3.38;;
36213;SDS011;37652;50.400;30.628;2022-08-18T14:07:25;6.53;;;3.60;;
36213;SDS011;37652;50.400;30.628;2022-08-18T14:09:27;4.90;;;2.97;;
36213;SDS011;37652;50.400;30.628;2022-08-18T14:11:29;5.20;;;2.70;;
36213;SDS011;37652;50.400;30.628;2022-08-18T14:13:31;6.43;;;3.08;;
36213;SDS011;37652;50.400;30.628;2022-08-18T14:15:33;7.60;;;3.20;;
36213;SDS011;37652;50.400;30.628;2022-08-18T14:17:38;6.40;;;3.20;;
36213;SDS011;37652;50.400;30.628;2022-08-18T14:19:39;13.68;;;3.42;;
36213;SDS011;37652;50.400;30.628;2022-08-18T14:21:59;13.45;;;2.72;;
36213;SDS011;37652;50.400;30.628;2022-08-18T14:24:19;8.85;;;3.10;;
36213;SDS011;37652;50.400;30.628;2022-08-18T14:26:38;8.93;;;3.05;;
36213;SDS011;37652;50.400;30.628;2022-08-18T14:28:49;11.90;;;3.10;;
36213;SDS011;37652;50.400;30.628;2022-08-18T14:30:51;6.97;;;3.00;;
36213;SDS011;37652;50.400;30.628;2022-08-18T14:32:52;8.73;;;3.88;;
36213;SDS011;37652;50.400;30.628;2022-08-18T14:34:53;9.85;;;3.03;;
36213;SDS011;37652;50.400;30.628;2022-08-18T14:36:54;9.70;;;4.07;;
36213;SDS011;37652;50.400;30.628;2022-08-18T14:38:55;9.75;;;4.07;;
36213;SDS011;37652;50.400;30.628;2022-08-18T14:40:57;9.45;;;3.35;;
36213;SDS011;37652;50.400;30.628;2022-08-18T14:43:01;8.50;;;3.50;;
36213;SDS011;37652;50.400;30.628;2022-08-18T14:45:02;7.72;;;3.20;;
36213;SDS011;37652;50.400;30.628;2022-08-18T14:47:06;8.10;;;3.60;;
36213;SDS011;37652;50.400;30.628;2022-08-18T14:49:06;9.75;;;3.30;;
36213;SDS011;37652;50.400;30.628;2022-08-18T14:51:07;7.90;;;3.55;;
36213;SDS011;37652;50.400;30.628;2022-08-18T14:53:09;11.32;;;4.13;;
36213;SDS011;37652;50.400;30.628;2022-08-18T14:55:12;7.90;;;3.33;;
36213;SDS011;37652;50.400;30.628;2022-08-18T14:57:13;9.00;;;3.53;;
36213;SDS011;37652;50.400;30.628;2022-08-18T14:59:14;8.27;;;3.42;;
36213;SDS011;37652;50.400;30.628;2022-08-18T15:01:15;13.68;;;3.83;;
36213;SDS011;37652;50.400;30.628;2022-08-18T15:03:17;6.25;;;3.65;;
36213;SDS011;37652;50.400;30.628;2022-08-18T15:05:18;7.03;;;3.22;;
36213;SDS011;37652;50.400;30.628;2022-08-18T15:07:19;8.75;;;3.50;;
36213;SDS011;37652;50.400;30.628;2022-08-18T15:09:21;8.25;;;4.35;;
36213;SDS011;37652;50.400;30.628;2022-08-18T15:11:23;9.40;;;3.50;;
36213;SDS011;37652;50.400;30.628;2022-08-18T15:13:24;8.32;;;3.47;;
36213;SDS011;37652;50.400;30.628;2022-08-18T15:15:26;8.50;;;3.20;;
36213;SDS011;37652;50.400;30.628;2022-08-18T15:17:27;8.63;;;2.92;;
36213;SDS011;37652;50.400;30.628;2022-08-18T15:19:28;7.82;;;3.50;;
36213;SDS011;37652;50.400;30.628;2022-08-18T15:21:29;4.40;;;3.30;;
36213;SDS011;37652;50.400;30.628;2022-08-18T15:23:49;6.72;;;3.00;;